Time;durP1;ratioP1;P1;durP2;ratioP2;P2;SDS_P1;SDS_P2;PMS_P1;PMS_P2;Temp;Humidity;BMP_temperature;BMP_pressure;BME280_temperature;BME280_humidity;BME280_pressure;Samples;Min_cycle;Max_cycle;Signal;HPM_P1;HPM_P2
2022/12/15 00:39:06;;;;;;;23.10;14.10;;;;;;;-141.28;100.00;52707.97;5093334;28;20445;-75
2022/12/15 00:41:35;;;;;;;23.20;14.30;;;;;;;-141.28;100.00;52709.94;5093329;28;20441;-76
2022/12/15 00:44:02;;;;;;;22.43;14.10;;;;;;;-141.28;100.00;52871.00;5092915;28;20446;-76
2022/12/15 01:22:06;;;;;;;27.53;14.17;;;;;;;-141.28;100.00;52509.59;5105136;28;20455;-76
2022/12/15 01:24:34;;;;;;;31.20;16.33;;;;;;;-141.28;100.00;52523.34;5092181;28;20524;-79
2022/12/15 01:27:02;;;;;;;33.47;17.40;;;;;;;-141.28;100.00;52474.25;5092118;28;20534;-77
2022/12/15 01:29:29;;;;;;;35.57;18.27;;;;;;;-141.28;100.00;52407.47;5092277;28;20526;-79
2022/12/15 01:31:56;;;;;;;35.10;17.40;;;;;;;-141.28;100.00;52069.69;5107748;28;20487;-79
2022/12/15 01:34:24;;;;;;;31.60;18.37;;;;;;;-141.28;100.00;52368.19;5111861;28;20437;-75
2022/12/15 01:36:51;;;;;;;31.43;17.60;;;;;;;-141.28;100.00;52364.25;5107426;28;20485;-76
2022/12/15 01:39:17;;;;;;;37.50;18.83;;;;;;;-141.28;100.00;52266.06;5104227;28;20464;-80
2022/12/15 01:41:43;;;;;;;36.70;18.63;;;;;;;-141.28;100.00;52305.34;5112410;28;20468;-77
2022/12/15 01:44:30;;;;;;;39.07;19.63;;;;;;;-141.28;100.00;52156.09;5101879;28;20529;-75
2022/12/15 01:46:57;;;;;;;40.20;18.40;;;;;;;-141.28;100.00;52175.72;5112463;28;20754;-75
2022/12/15 01:49:28;;;;;;;34.83;17.40;;;;;;;-141.28;100.00;51961.69;5096335;28;20453;-77
2022/12/15 01:51:58;;;;;;;30.87;17.63;;;;;;;-141.28;100.00;52167.88;5101522;28;20471;-77
2022/12/15 01:54:32;;;;;;;32.47;17.63;;;;;;;-141.28;100.00;52067.72;5095241;28;20446;-76
2022/12/15 01:57:04;;;;;;;37.00;18.27;;;;;;;-141.28;100.00;51761.38;5092038;28;20437;-78
2022/12/15 01:59:35;;;;;;;34.77;19.40;;;;;;;-141.28;100.00;52053.97;5091968;28;20444;-76
2022/12/15 02:02:02;;;;;;;35.77;19.53;;;;;;;-141.28;100.00;51898.84;5092388;28;20497;-78
2022/12/15 02:04:31;;;;;;;31.43;18.07;;;;;;;-141.28;100.00;52048.09;5111510;28;20441;-79
2022/12/15 02:06:58;;;;;;;32.50;17.50;;;;;;;-141.28;100.00;51881.16;5100478;28;20827;-78
2022/12/15 02:09:27;;;;;;;25.93;13.70;;;;;;;-141.28;100.00;51859.56;5110541;28;20475;-80
2022/12/15 02:12:06;;;;;;;25.47;14.77;;;;;;;-141.28;100.00;51999.00;5100424;28;20449;-78
2022/12/15 02:14:57;;;;;;;23.20;14.93;;;;;;;-141.28;100.00;51920.44;5098308;28;20454;-79
2022/12/15 02:17:35;;;;;;;24.53;14.03;;;;;;;-141.28;100.00;51857.59;5095096;28;20449;-76
2022/12/15 02:20:49;;;;;;;21.00;12.80;;;;;;;-141.28;100.00;51735.84;5093642;28;20836;-76
2022/12/15 02:23:45;;;;;;;16.37;10.13;;;;;;;-141.28;100.00;51500.22;5093758;28;21013;-76
2022/12/15 02:26:44;;;;;;;14.37;8.87;;;;;;;-141.28;100.00;51449.19;5102395;28;20440;-76
2022/12/15 02:29:27;;;;;;;11.07;6.80;;;;;;;-141.28;100.00;51362.78;5120303;28;20460;-76
2022/12/15 02:32:00;;;;;;;11.50;6.30;;;;;;;-141.28;100.00;51409.91;5133469;28;20444;-76
2022/12/15 02:34:34;;;;;;;11.70;6.87;;;;;;;-141.28;100.00;51543.44;5121245;28;20480;-77
2022/12/15 02:37:06;;;;;;;10.90;6.57;;;;;;;-141.28;100.00;51570.91;5120566;28;20469;-75
2022/12/15 02:39:33;;;;;;;9.37;6.03;;;;;;;-141.28;100.00;51417.78;5122380;28;20480;-76
2022/12/15 02:42:00;;;;;;;10.60;6.83;;;;;;;-141.28;100.00;51645.53;5115290;28;20480;-77
2022/12/15 02:44:32;;;;;;;10.00;5.70;;;;;;;-141.28;100.00;51739.78;5101523;28;20881;-77
2022/12/15 02:47:22;;;;;;;6.57;4.67;;;;;;;-141.28;100.00;51671.06;5100915;28;20473;-76
2022/12/15 02:50:03;;;;;;;5.90;4.10;;;;;;;-141.28;100.00;51625.91;5086468;28;20486;-76
2022/12/15 02:52:45;;;;;;;6.20;4.07;;;;;;;-141.28;100.00;51539.50;5099966;28;20892;-75
2022/12/15 02:55:20;;;;;;;5.77;4.07;;;;;;;-141.28;100.00;51580.72;5097173;28;20488;-76
2022/12/15 02:57:55;;;;;;;6.50;4.17;;;;;;;-141.28;100.00;51629.81;5100233;28;20441;-78
2022/12/15 03:00:22;;;;;;;5.93;4.17;;;;;;;-141.28;100.00;51637.69;5100965;28;20455;-77
2022/12/15 03:02:54;;;;;;;6.07;4.13;;;;;;;-141.28;100.00;51712.28;5113398;28;20479;-76
2022/12/15 03:05:22;;;;;;;7.43;5.30;;;;;;;-141.28;100.00;51714.25;5098749;28;20975;-75
2022/12/15 03:07:51;;;;;;;8.20;5.57;;;;;;;-141.28;100.00;51790.84;5095678;28;20475;-76
2022/12/15 03:10:19;;;;;;;9.03;5.67;;;;;;;-141.28;100.00;51700.50;5095356;28;20445;-78
2022/12/15 03:12:45;;;;;;;9.27;6.07;;;;;;;-141.28;100.00;51777.09;5094769;28;20449;-74
2022/12/15 03:15:13;;;;;;;8.30;5.97;;;;;;;-141.28;100.00;51816.38;5094348;28;20460;-78
2022/12/15 03:17:41;;;;;;;10.33;6.07;;;;;;;-141.28;100.00;51786.91;5094814;28;20458;-76
2022/12/15 03:20:10;;;;;;;9.80;6.57;;;;;;;-141.28;100.00;51800.66;5099889;28;20445;-78
2022/12/15 03:22:38;;;;;;;10.80;6.33;;;;;;;-141.28;100.00;51802.63;5102381;28;20885;-78
2022/12/15 03:25:07;;;;;;;12.13;6.80;;;;;;;-141.28;100.00;51782.97;5113945;28;21028;-75
2022/12/15 03:27:36;;;;;;;9.77;6.50;;;;;;;-141.28;100.00;51820.28;5101658;28;20481;-76
2022/12/15 03:30:04;;;;;;;10.63;6.40;;;;;;;-141.28;100.00;51761.38;5054272;28;20448;-76
2022/12/15 03:32:32;;;;;;;9.33;6.10;;;;;;;-141.28;100.00;51777.09;5053938;28;20965;-76
2022/12/15 03:34:59;;;;;;;9.63;5.93;;;;;;;-141.28;100.00;51688.72;5054122;28;20489;-75
2022/12/15 03:37:28;;;;;;;10.23;6.60;;;;;;;-141.28;100.00;51720.16;5058565;28;20544;-75
2022/12/15 03:39:55;;;;;;;11.47;7.37;;;;;;;-141.28;100.00;51696.59;5061015;28;20478;-75
2022/12/15 03:45:04;;;;;;;15.80;8.47;;;;;;;-141.28;100.00;51637.69;5053841;28;20501;-76
2022/12/15 03:47:32;;;;;;;12.37;7.73;;;;;;;-141.28;100.00;51651.41;5054169;28;20454;-76
2022/12/15 03:49:58;;;;;;;14.77;8.80;;;;;;;-141.28;100.00;51686.75;5053606;28;20517;-76
2022/12/15 03:52:25;;;;;;;15.03;8.37;;;;;;;-141.28;100.00;51645.53;5054025;28;20848;-76
2022/12/15 03:54:54;;;;;;;11.33;7.87;;;;;;;-141.28;100.00;51437.41;5053627;28;20444;-75
2022/12/15 03:57:22;;;;;;;14.00;7.60;;;;;;;-141.28;100.00;51676.94;5054046;28;20509;-75
2022/12/15 03:59:49;;;;;;;12.87;7.50;;;;;;;-141.28;100.00;51720.16;5058239;28;20447;-77
2022/12/15 04:02:17;;;;;;;10.03;6.67;;;;;;;-141.28;100.00;51572.88;5062948;28;20467;-75
2022/12/15 04:04:44;;;;;;;11.50;7.27;;;;;;;-141.28;100.00;51696.59;5057796;28;20937;-76
2022/12/15 04:07:11;;;;;;;10.97;6.87;;;;;;;-141.28;100.00;51696.59;5062378;28;20459;-78
2022/12/15 04:09:38;;;;;;;11.10;6.83;;;;;;;-141.28;100.00;51720.16;5053422;28;20530;-78
2022/12/15 04:12:07;;;;;;;9.93;6.30;;;;;;;-141.28;100.00;51712.28;5053531;28;20500;-76
2022/12/15 04:14:34;;;;;;;10.70;6.17;;;;;;;-141.28;100.00;51673.03;5053430;28;20454;-78
2022/12/15 04:17:01;;;;;;;9.77;6.37;;;;;;;-141.28;100.00;51726.03;5053442;28;20487;-79
2022/12/15 04:22:12;;;;;;;11.60;7.03;;;;;;;-141.28;100.00;51496.31;5075598;28;20458;-75
2022/12/15 05:33:15;;;;;;;21.20;12.67;;;;;;;-141.28;100.00;51123.28;5092536;28;20627;-80
2022/12/15 05:35:42;;;;;;;23.17;13.23;;;;;;;-141.28;100.00;51248.91;5092550;28;20872;-76
2022/12/15 05:38:11;;;;;;;19.73;12.13;;;;;;;-141.28;100.00;51341.19;5096001;28;20450;-80
2022/12/15 05:40:38;;;;;;;20.13;12.03;;;;;;;-141.28;100.00;51360.81;5111911;28;20890;-78
2022/12/15 05:43:06;;;;;;;20.13;12.37;;;;;;;-141.28;100.00;51417.78;5092266;28;20457;-75
2022/12/15 05:45:33;;;;;;;19.27;10.97;;;;;;;-141.28;100.00;51484.53;5098198;28;20444;-77
2022/12/15 05:48:00;;;;;;;17.13;10.43;;;;;;;-141.28;100.00;51508.09;5109010;28;20445;-76
2022/12/15 05:50:29;;;;;;;15.93;10.07;;;;;;;-141.28;100.00;51586.63;5109301;28;20514;-76
2022/12/15 05:52:58;;;;;;;18.57;11.97;;;;;;;-141.28;100.00;51557.16;5101514;28;20467;-77
2022/12/15 05:55:25;;;;;;;18.97;11.20;;;;;;;-141.28;100.00;51578.78;5095254;28;20561;-76
2022/12/15 05:57:52;;;;;;;17.50;11.00;;;;;;;-141.28;100.00;51618.03;5091961;28;20493;-78
2022/12/15 06:00:19;;;;;;;24.47;13.10;;;;;;;-141.28;100.00;51671.06;5112257;28;20974;-77
2022/12/15 06:02:46;;;;;;;23.47;13.13;;;;;;;-141.28;100.00;51688.72;5093450;28;20512;-76
2022/12/15 06:05:13;;;;;;;22.97;12.63;;;;;;;-141.28;100.00;51671.06;5099972;28;20524;-76
2022/12/15 06:07:43;;;;;;;23.00;12.67;;;;;;;-141.28;100.00;51645.53;5110471;28;20447;-79
2022/12/15 06:10:10;;;;;;;25.60;12.27;;;;;;;-141.28;100.00;51710.31;5091666;28;20876;-77
2022/12/15 06:12:37;;;;;;;21.57;12.13;;;;;;;-141.28;100.00;51749.59;5091630;28;20473;-74
2022/12/15 06:15:05;;;;;;;18.23;11.00;;;;;;;-141.28;100.00;51782.97;5091986;28;20445;-76
2022/12/15 06:17:32;;;;;;;24.80;15.23;;;;;;;-141.28;100.00;51771.19;5091661;28;22052;-75
2022/12/15 06:19:59;;;;;;;24.70;15.20;;;;;;;-141.28;100.00;51794.75;5091378;28;20449;-76
2022/12/15 06:22:28;;;;;;;27.50;14.70;;;;;;;-141.28;100.00;51794.75;5091433;28;20453;-75
2022/12/15 06:24:56;;;;;;;25.40;14.23;;;;;;;-141.28;100.00;51798.69;5091813;28;20454;-76
2022/12/15 06:27:23;;;;;;;22.03;13.70;;;;;;;-141.28;100.00;51818.31;5091635;28;20476;-80
2022/12/15 06:29:50;;;;;;;37.50;22.80;;;;;;;-141.28;100.00;51818.31;5091782;28;20481;-78
2022/12/15 06:32:20;;;;;;;36.73;24.17;;;;;;;-141.28;100.00;51849.75;5091261;28;20472;-79
2022/12/15 06:34:47;;;;;;;41.80;26.30;;;;;;;-141.28;100.00;51871.34;5091666;28;20545;-77
2022/12/15 06:37:14;;;;;;;38.97;21.63;;;;;;;-141.28;100.00;51885.09;5091471;28;20481;-76
2022/12/15 06:39:42;;;;;;;37.03;17.87;;;;;;;-141.28;100.00;51802.63;5091595;28;20453;-76
2022/12/15 06:42:11;;;;;;;27.00;16.77;;;;;;;-141.28;100.00;51841.88;5091108;28;21019;-76
2022/12/15 06:44:37;;;;;;;28.23;16.43;;;;;;;-141.28;100.00;51826.19;5091421;28;20450;-78
2022/12/15 06:47:04;;;;;;;31.07;17.53;;;;;;;-141.28;100.00;51944.00;5091262;28;20890;-76
2022/12/15 06:49:31;;;;;;;35.00;17.33;;;;;;;-141.28;100.00;51724.06;5091809;28;20464;-76
2022/12/15 06:51:58;;;;;;;27.00;15.57;;;;;;;-141.28;100.00;51981.31;5097820;28;20531;-75
2022/12/15 06:54:25;;;;;;;28.23;16.07;;;;;;;-141.28;100.00;51991.13;5098619;28;20481;-76
2022/12/15 06:56:52;;;;;;;28.83;16.27;;;;;;;-141.28;100.00;52079.50;5091847;28;20474;-77
2022/12/15 06:59:20;;;;;;;26.00;15.57;;;;;;;-141.28;100.00;52234.66;5104821;28;20885;-77
2022/12/15 07:01:47;;;;;;;26.90;15.97;;;;;;;-141.28;100.00;52464.44;5091378;28;20835;-76
2022/12/15 07:04:14;;;;;;;22.23;14.23;;;;;;;-141.28;100.00;52572.44;5091098;28;20454;-75
2022/12/15 07:06:41;;;;;;;19.50;12.87;;;;;;;-141.28;100.00;52352.47;5098172;28;20509;-77
2022/12/15 07:09:15;;;;;;;24.57;13.43;;;;;;;-141.28;100.00;52152.16;5111080;28;20448;-78
2022/12/15 07:11:42;;;;;;;21.80;13.43;;;;;;;-141.28;100.00;51995.06;5102352;28;20468;-77
2022/12/15 07:14:10;;;;;;;23.70;13.00;;;;;;;-141.28;100.00;51979.34;5093058;28;20535;-77
2022/12/15 07:16:39;;;;;;;18.97;12.37;;;;;;;-141.28;100.00;52044.16;5114986;28;20488;-79
2022/12/15 07:19:10;;;;;;;20.07;12.70;;;;;;;-141.28;100.00;52073.63;5114871;28;20494;-76
2022/12/15 07:21:37;;;;;;;20.27;12.80;;;;;;;-141.28;100.00;52250.34;5101636;28;20472;-77
2022/12/15 07:24:05;;;;;;;20.87;12.93;;;;;;;-141.28;100.00;52171.81;5107056;28;20437;-77
2022/12/15 07:26:31;;;;;;;21.37;12.87;;;;;;;-141.28;100.00;52010.78;5094631;28;20458;-78
2022/12/15 07:28:58;;;;;;;23.93;13.87;;;;;;;-141.28;100.00;51822.25;5103413;28;20476;-79
2022/12/15 07:31:26;;;;;;;22.60;12.93;;;;;;;-141.28;100.00;51735.84;5114577;28;20452;-75
2022/12/15 07:33:54;;;;;;;19.93;13.00;;;;;;;-141.28;100.00;51743.72;5115041;28;20451;-75
2022/12/15 07:36:21;;;;;;;21.93;12.83;;;;;;;-141.28;100.00;51696.59;5108268;28;20545;-75
2022/12/15 07:38:48;;;;;;;20.30;13.17;;;;;;;-141.28;100.00;51625.91;5094413;28;20446;-75
2022/12/15 07:41:15;;;;;;;20.53;12.80;;;;;;;-141.28;100.00;51584.66;5107725;28;20896;-76
2022/12/15 07:43:45;;;;;;;24.10;13.50;;;;;;;-141.28;100.00;51386.34;5104743;28;20803;-77
2022/12/15 07:46:12;;;;;;;21.10;12.10;;;;;;;-141.28;100.00;51488.44;5097799;28;20446;-76
2022/12/15 07:48:39;;;;;;;19.97;12.87;;;;;;;-141.28;100.00;51327.44;5098343;28;20433;-76
2022/12/15 07:51:08;;;;;;;20.47;12.50;;;;;;;-141.28;100.00;51537.53;5094528;28;20434;-76
2022/12/15 07:53:36;;;;;;;23.57;13.27;;;;;;;-141.28;100.00;51476.66;5094307;28;20945;-76
2022/12/15 07:56:05;;;;;;;21.03;12.77;;;;;;;-141.28;100.00;51574.84;5094087;28;20450;-76
2022/12/15 07:58:32;;;;;;;21.10;11.97;;;;;;;-141.28;100.00;51453.09;5094415;28;20529;-77
2022/12/15 08:01:00;;;;;;;19.97;11.77;;;;;;;-141.28;100.00;51260.69;5107486;28;20441;-77
2022/12/15 08:03:28;;;;;;;18.67;11.57;;;;;;;-141.28;100.00;51131.13;5110820;28;20456;-79
2022/12/15 08:05:55;;;;;;;22.07;12.53;;;;;;;-141.28;100.00;51103.63;5102854;28;20456;-77
2022/12/15 08:08:24;;;;;;;22.40;11.43;;;;;;;-141.28;100.00;50976.03;5113831;28;20448;-75
2022/12/15 08:10:51;;;;;;;19.63;11.43;;;;;;;-141.28;100.00;50903.41;5113679;28;20444;-76
2022/12/15 08:13:18;;;;;;;21.47;12.67;;;;;;;-141.28;100.00;50836.66;5105433;28;20955;-76
2022/12/15 08:15:46;;;;;;;18.87;12.77;;;;;;;-141.28;100.00;50695.31;5103152;28;20437;-77
2022/12/15 08:18:13;;;;;;;19.90;12.77;;;;;;;-141.28;100.00;50616.78;5114397;28;20484;-76
2022/12/15 08:20:40;;;;;;;20.50;12.03;;;;;;;-141.28;100.00;50599.13;5108227;28;20853;-78
2022/12/15 08:23:08;;;;;;;22.33;12.30;;;;;;;-141.28;100.00;50540.22;5103405;28;20513;-76
2022/12/15 08:25:36;;;;;;;18.10;12.17;;;;;;;-141.28;100.00;50499.00;5118631;28;20452;-76
2022/12/15 08:28:03;;;;;;;16.93;10.40;;;;;;;-141.28;100.00;50449.94;5099507;28;20503;-76
2022/12/15 08:30:33;;;;;;;17.13;11.73;;;;;;;-141.28;100.00;50373.38;5103490;28;20508;-76
2022/12/15 08:33:00;;;;;;;24.27;13.57;;;;;;;-141.28;100.00;50318.44;5096147;28;20444;-76
2022/12/15 08:35:27;;;;;;;20.43;12.77;;;;;;;-141.28;100.00;50236.00;5094940;28;20449;-75
2022/12/15 08:37:55;;;;;;;19.83;12.37;;;;;;;-141.28;100.00;50249.75;5106136;28;20477;-78
2022/12/15 08:40:22;;;;;;;24.47;14.07;;;;;;;-141.28;100.00;50239.94;5094523;28;20501;-76
2022/12/15 08:42:51;;;;;;;20.77;12.83;;;;;;;-141.28;100.00;50200.66;5105426;28;20499;-76
2022/12/15 08:45:19;;;;;;;28.47;15.23;;;;;;;-141.28;100.00;50228.16;5093605;28;20476;-75
2022/12/15 08:47:46;;;;;;;24.63;15.03;;;;;;;-141.28;100.00;50196.75;5093513;28;20453;-75
2022/12/15 08:50:14;;;;;;;27.93;16.50;;;;;;;-141.28;100.00;50220.28;5092929;28;20481;-75
2022/12/15 08:52:41;;;;;;;29.10;17.20;;;;;;;-141.28;100.00;50200.66;5102324;28;20514;-75
2022/12/15 08:55:10;;;;;;;28.70;19.10;;;;;;;-141.28;100.00;50216.38;5099722;28;20510;-76
2022/12/15 08:57:39;;;;;;;30.70;17.73;;;;;;;-141.28;100.00;50243.84;5102730;28;21035;-74
2022/12/15 09:00:09;;;;;;;30.53;18.27;;;;;;;-141.28;100.00;50267.41;5110238;28;20458;-75
2022/12/15 09:02:37;;;;;;;27.47;17.33;;;;;;;-141.28;100.00;50310.59;5099997;28;20441;-78
2022/12/15 09:05:05;;;;;;;26.57;16.03;;;;;;;-141.28;100.00;50389.09;5099703;28;20897;-76
2022/12/15 09:07:33;;;;;;;31.53;18.77;;;;;;;-141.28;100.00;50404.81;5098620;28;20457;-78
2022/12/15 09:10:01;;;;;;;37.40;18.73;;;;;;;-141.28;100.00;50465.66;5105717;28;20446;-77
2022/12/15 09:12:28;;;;;;;38.93;22.40;;;;;;;-141.28;100.00;50412.66;5094172;28;20453;-75
2022/12/15 09:14:55;;;;;;;29.27;19.03;;;;;;;-141.28;100.00;50561.81;5113449;28;20456;-76
2022/12/15 09:17:24;;;;;;;39.20;22.37;;;;;;;-141.28;100.00;50593.22;5111282;28;20484;-76
2022/12/15 09:19:51;;;;;;;32.00;18.77;;;;;;;-141.28;100.00;50689.41;5093029;28;20590;-79
2022/12/15 09:22:18;;;;;;;30.20;19.33;;;;;;;-141.28;100.00;50716.91;5108746;28;20467;-77
2022/12/15 09:24:46;;;;;;;34.60;19.57;;;;;;;-141.28;100.00;50728.69;5112819;28;20447;-76
2022/12/15 09:27:14;;;;;;;40.57;19.93;;;;;;;-141.28;100.00;50860.19;5118834;28;21014;-76
2022/12/15 09:29:41;;;;;;;32.43;19.40;;;;;;;-141.28;100.00;50887.69;5103380;28;20548;-74
2022/12/15 09:32:08;;;;;;;33.40;19.50;;;;;;;-141.28;100.00;51080.06;5118915;28;20440;-75
2022/12/15 09:34:36;;;;;;;32.33;20.63;;;;;;;-141.28;100.00;51178.25;5109231;28;20453;-75
2022/12/15 09:37:05;;;;;;;32.37;21.00;;;;;;;-141.28;100.00;51272.47;5121020;28;20473;-73
2022/12/15 09:39:33;;;;;;;34.40;20.13;;;;;;;-141.28;100.00;51339.22;5107434;28;20457;-73
2022/12/15 09:42:05;;;;;;;29.07;19.57;;;;;;;-141.28;100.00;51468.81;5100554;28;20450;-77
2022/12/15 09:44:32;;;;;;;33.90;19.37;;;;;;;-141.28;100.00;51421.69;5108417;28;20452;-76
2022/12/15 09:47:14;;;;;;;34.70;20.07;;;;;;;-141.28;100.00;51345.13;5093100;28;20892;-78
2022/12/15 09:49:58;;;;;;;35.70;20.13;;;;;;;-141.28;100.00;51311.75;5112317;28;20471;-78
2022/12/15 09:52:28;;;;;;;34.03;19.63;;;;;;;-141.28;100.00;51211.63;5105062;28;20464;-77
2022/12/15 09:54:55;;;;;;;32.60;19.50;;;;;;;-141.28;100.00;51095.78;5112533;28;20452;-75
2022/12/15 09:57:31;;;;;;;31.60;19.20;;;;;;;-141.28;100.00;51195.91;5121781;28;20473;-75
2022/12/15 10:00:20;;;;;;;34.97;20.43;;;;;;;-141.28;100.00;51070.25;5117339;28;20449;-76
2022/12/15 10:03:43;;;;;;;39.10;21.80;;;;;;;-141.28;100.00;50897.50;5117919;28;20524;-75
2022/12/15 10:06:17;;;;;;;41.03;20.87;;;;;;;-141.28;100.00;50946.59;5118284;28;20449;-76
2022/12/15 10:08:48;;;;;;;30.17;18.37;;;;;;;-141.28;100.00;50976.03;5093884;28;20448;-77
2022/12/15 10:11:21;;;;;;;29.03;17.87;;;;;;;-141.28;100.00;50887.69;5097092;28;20452;-76
2022/12/15 10:13:54;;;;;;;33.83;19.50;;;;;;;-141.28;100.00;50832.72;5113163;28;20456;-80
2022/12/15 10:16:29;;;;;;;35.30;20.43;;;;;;;-141.28;100.00;50632.50;5105809;28;20493;-77
2022/12/15 10:19:03;;;;;;;33.40;18.53;;;;;;;-141.28;100.00;50722.78;5092773;28;20523;-78
2022/12/15 10:21:32;;;;;;;34.80;18.87;;;;;;;-141.28;100.00;50797.38;5103686;28;20490;-76
2022/12/15 10:24:08;;;;;;;27.63;17.63;;;;;;;-141.28;100.00;50758.13;5092313;28;20502;-76
2022/12/15 10:26:36;;;;;;;34.80;18.10;;;;;;;-141.28;100.00;50746.34;5092470;28;20526;-77
2022/12/15 10:29:16;;;;;;;25.47;16.30;;;;;;;-141.28;100.00;50789.53;5092224;28;20530;-76
2022/12/15 10:31:51;;;;;;;26.37;16.90;;;;;;;-141.28;100.00;50824.88;5121411;28;20455;-77
2022/12/15 10:34:25;;;;;;;29.27;17.20;;;;;;;-141.28;100.00;50673.72;5134245;28;20460;-76
2022/12/15 10:36:54;;;;;;;22.27;14.70;;;;;;;-141.28;100.00;50563.78;5132571;28;20439;-75
2022/12/15 10:39:22;;;;;;;27.70;17.13;;;;;;;-141.28;100.00;50530.41;5113262;28;20442;-76
2022/12/15 10:42:11;;;;;;;27.40;17.97;;;;;;;-141.28;100.00;50389.09;5092209;28;20445;-78
2022/12/15 10:44:42;;;;;;;30.33;18.37;;;;;;;-141.28;100.00;50279.19;5096706;28;20469;-77
2022/12/15 10:47:16;;;;;;;31.10;18.50;;;;;;;-141.28;100.00;50300.78;5099084;28;20516;-76
2022/12/15 10:49:43;;;;;;;29.67;17.70;;;;;;;-141.28;100.00;50377.31;5100371;28;20440;-75
2022/12/15 10:52:20;;;;;;;32.07;18.20;;;;;;;-141.28;100.00;50424.44;5101876;28;20445;-76
2022/12/15 10:54:49;;;;;;;26.80;17.07;;;;;;;-141.28;100.00;50444.06;5103849;28;20444;-76
2022/12/15 10:57:19;;;;;;;31.07;18.73;;;;;;;-141.28;100.00;50477.44;5100045;28;20484;-76
2022/12/15 10:59:47;;;;;;;25.27;15.67;;;;;;;-141.28;100.00;50506.88;5094916;28;20799;-78
2022/12/15 11:02:31;;;;;;;30.00;18.20;;;;;;;-141.28;100.00;50467.59;5095424;28;20445;-76
2022/12/15 11:04:59;;;;;;;25.87;14.07;;;;;;;-141.28;100.00;50483.31;5108516;28;20437;-74
2022/12/15 11:07:36;;;;;;;31.47;16.93;;;;;;;-141.28;100.00;50365.53;5108515;28;20449;-79
2022/12/15 11:10:16;;;;;;;43.53;21.67;;;;;;;-141.28;100.00;50251.69;5096512;28;20445;-76
2022/12/15 11:12:51;;;;;;;34.40;18.23;;;;;;;-141.28;100.00;50377.31;5112744;28;20452;-77
2022/12/15 11:15:36;;;;;;;39.97;25.83;;;;;;;-141.28;100.00;50314.50;5115047;28;20433;-79
2022/12/15 11:18:11;;;;;;;29.87;16.33;;;;;;;-141.28;100.00;50400.88;5107095;28;20477;-79
2022/12/15 11:20:42;;;;;;;46.37;26.00;;;;;;;-141.28;100.00;50365.53;5096425;28;20483;-77
2022/12/15 11:23:17;;;;;;;31.57;18.20;;;;;;;-141.28;100.00;50367.50;5105095;28;20823;-76
2022/12/15 11:25:49;;;;;;;34.33;19.07;;;;;;;-141.28;100.00;50404.81;5094746;28;20436;-77
2022/12/15 11:28:19;;;;;;;29.93;17.37;;;;;;;-141.28;100.00;50461.72;5094738;28;20477;-77
2022/12/15 11:30:52;;;;;;;29.77;17.73;;;;;;;-141.28;100.00;50487.25;5094614;28;20446;-75
2022/12/15 11:33:19;;;;;;;30.50;18.40;;;;;;;-141.28;100.00;50605.00;5094425;28;20819;-76
2022/12/15 11:35:58;;;;;;;29.73;17.50;;;;;;;-141.28;100.00;50716.91;5107961;28;20525;-75
2022/12/15 11:38:34;;;;;;;41.67;18.23;;;;;;;-141.28;100.00;50789.53;5108026;28;20487;-75
2022/12/15 11:41:08;;;;;;;30.73;18.03;;;;;;;-141.28;100.00;50850.38;5104338;28;20433;-77
2022/12/15 11:43:54;;;;;;;28.13;17.63;;;;;;;-141.28;100.00;50718.88;5114042;28;20448;-75
2022/12/15 11:46:24;;;;;;;35.73;19.53;;;;;;;-141.28;100.00;50911.25;5101057;28;20445;-78
2022/12/15 11:49:14;;;;;;;35.37;17.97;;;;;;;-141.28;100.00;50870.03;5101168;28;20440;-76
2022/12/15 11:51:46;;;;;;;34.07;18.87;;;;;;;-141.28;100.00;50928.91;5100644;28;20447;-75
2022/12/15 11:54:27;;;;;;;27.67;17.23;;;;;;;-141.28;100.00;51115.41;5102866;28;20852;-75
2022/12/15 11:57:01;;;;;;;26.27;16.13;;;;;;;-141.28;100.00;51174.31;5094749;28;20441;-77
2022/12/15 11:59:47;;;;;;;28.73;18.57;;;;;;;-141.28;100.00;51869.38;5094310;28;20496;-73
2022/12/15 12:02:29;;;;;;;24.90;16.37;;;;;;;-141.28;100.00;50905.34;5094249;28;20928;-76
2022/12/15 12:05:16;;;;;;;22.90;15.73;;;;;;;-141.28;100.00;50954.44;5107700;28;20936;-77
2022/12/15 12:07:47;;;;;;;24.27;15.70;;;;;;;-141.28;100.00;51241.06;5096027;28;20453;-76
2022/12/15 12:10:32;;;;;;;30.37;17.03;;;;;;;-141.28;100.00;51380.47;5094443;28;20196;-76
2022/12/15 12:13:10;;;;;;;29.57;17.40;;;;;;;-141.28;100.00;50909.28;5093720;28;20257;-78
2022/12/15 12:15:50;;;;;;;27.47;17.63;;;;;;;-141.28;100.00;51303.88;5107577;28;20286;-77
2022/12/15 12:18:22;;;;;;;26.93;17.73;;;;;;;-141.28;100.00;50817.03;5093757;28;20646;-77
2022/12/15 12:20:53;;;;;;;23.13;16.80;;;;;;;-141.28;100.00;50811.13;5093712;28;20199;-76
2022/12/15 12:23:24;;;;;;;23.87;16.73;;;;;;;-141.28;100.00;51138.97;5103983;28;20210;-75
2022/12/15 12:26:00;;;;;;;25.13;16.90;;;;;;;-141.28;100.00;51131.13;5099719;28;20200;-78
2022/12/15 12:28:33;;;;;;;27.27;17.83;;;;;;;-141.28;100.00;51826.19;5098555;28;20728;-75
2022/12/15 12:31:03;;;;;;;28.37;18.20;;;;;;;-141.28;100.00;51521.84;5108726;28;20580;-76
2022/12/15 12:33:34;;;;;;;27.03;18.23;;;;;;;-141.28;100.00;51747.63;5099914;28;20220;-79
2022/12/15 12:36:10;;;;;;;25.63;17.63;;;;;;;-141.28;100.00;51480.59;5093310;28;20735;-76
2022/12/15 12:38:44;;;;;;;26.77;18.30;;;;;;;-141.28;100.00;51861.53;5110570;28;20226;-77
2022/12/15 12:41:21;;;;;;;23.50;17.23;;;;;;;-141.28;100.00;51961.69;5113686;28;20206;-76
2022/12/15 12:43:51;;;;;;;25.50;17.87;;;;;;;-141.28;100.00;52067.72;5113567;28;20616;-75
2022/12/15 12:46:24;;;;;;;26.17;17.97;;;;;;;-141.28;100.00;52154.13;5112336;28;20218;-78
2022/12/15 12:48:54;;;;;;;24.33;17.77;;;;;;;-141.28;100.00;52132.53;5113140;28;20206;-79
2022/12/15 12:51:27;;;;;;;43.40;26.93;;;;;;;-141.28;100.00;52085.41;5093735;28;20204;-77
2022/12/15 12:53:54;;;;;;;35.60;21.23;;;;;;;-141.28;100.00;52053.97;5106268;28;20202;-75
2022/12/15 12:56:39;;;;;;;33.33;21.47;;;;;;;-141.28;100.00;52057.91;5099208;28;20195;-79
2022/12/15 12:59:35;;;;;;;33.50;20.90;;;;;;;-141.28;100.00;52053.97;5097163;28;20724;-77
2022/12/15 13:03:04;;;;;;;29.17;19.50;;;;;;;-141.28;100.00;52018.63;5093504;28;20204;-76
2022/12/15 13:05:33;;;;;;;27.40;19.23;;;;;;;-141.28;100.00;52160.03;5093021;28;20294;-79
2022/12/15 13:08:39;;;;;;;26.93;18.37;;;;;;;-141.28;100.00;51845.81;5092970;28;20260;-78
2022/12/15 13:11:42;;;;;;;27.27;19.63;;;;;;;-141.28;100.00;52163.94;5106428;28;20206;-77
2022/12/15 13:14:17;;;;;;;27.77;19.07;;;;;;;-141.28;100.00;52034.34;5086121;28;20673;-77
2022/12/15 13:16:45;;;;;;;24.00;16.93;;;;;;;-141.28;100.00;52103.06;5093906;28;20268;-80
2022/12/15 13:19:12;;;;;;;23.37;17.23;;;;;;;-141.28;100.00;52105.03;5096672;28;20247;-79
2022/12/15 13:21:55;;;;;;;24.57;16.60;;;;;;;-141.28;100.00;52022.56;5113002;28;20199;-77
2022/12/15 13:24:33;;;;;;;23.30;16.60;;;;;;;-141.28;100.00;51920.44;5107650;28;20207;-78
2022/12/15 13:27:14;;;;;;;21.83;15.73;;;;;;;-141.28;100.00;51983.28;5095922;28;20215;-79
2022/12/15 13:30:03;;;;;;;20.83;15.00;;;;;;;-141.28;100.00;52156.09;5094100;28;20234;-77
2022/12/15 13:32:33;;;;;;;23.63;15.87;;;;;;;-141.28;100.00;52207.16;5092216;28;20200;-78
2022/12/15 13:35:21;;;;;;;22.73;15.87;;;;;;;-141.28;100.00;52046.13;5092372;28;20275;-77
2022/12/15 13:37:51;;;;;;;30.00;20.90;;;;;;;-141.28;100.00;51955.78;5103481;28;20200;-78
2022/12/15 13:40:50;;;;;;;23.07;14.87;;;;;;;-141.28;100.00;51999.00;5092731;28;20207;-78
2022/12/15 13:43:42;;;;;;;23.67;14.67;;;;;;;-141.28;100.00;52105.03;5091734;28;20204;-76
2022/12/15 13:46:18;;;;;;;18.33;12.80;;;;;;;-141.28;100.00;52089.31;5091866;28;20685;-77